createdAt,value
2023-01-10T00:01:39.850Z,102085.00
2023-01-10T00:04:06.899Z,102097.56
2023-01-10T00:06:37.040Z,102097.56
2023-01-10T00:09:07.201Z,102100.22
2023-01-10T00:11:52.612Z,102122.63
2023-01-10T00:14:29.014Z,102138.56
2023-01-10T00:16:57.702Z,102136.66
2023-01-10T00:19:25.265Z,102138.56
2023-01-10T00:21:52.775Z,102146.56
2023-01-10T00:24:20.915Z,102140.44
2023-01-10T00:26:56.252Z,102120.94
2023-01-10T00:29:32.132Z,102132.59
2023-01-10T00:38:46.667Z,102162.16
2023-01-10T00:41:35.649Z,102153.38
2023-01-10T00:44:06.814Z,102156.19
2023-01-10T00:46:34.378Z,102158.00
2023-01-10T00:49:02.150Z,102150.09
2023-01-10T00:51:31.055Z,102151.09
2023-01-10T00:53:58.822Z,102163.66
2023-01-10T00:56:26.287Z,102176.19
2023-01-10T00:58:53.626Z,102171.84
2023-01-10T01:01:21.027Z,102179.28
2023-01-10T01:03:48.217Z,102172.13
2023-01-10T01:06:16.285Z,102186.47
2023-01-10T01:08:43.330Z,102203.28
2023-01-10T01:11:13.135Z,102206.16
2023-01-10T01:13:42.496Z,102189.38
2023-01-10T01:16:10.084Z,102179.78
2023-01-10T01:18:37.173Z,102179.09
2023-01-10T01:21:08.596Z,102184.56
2023-01-10T01:23:36.119Z,102171.38
2023-01-10T01:26:05.995Z,102173.34
2023-01-10T01:28:33.688Z,102169.16
2023-01-10T01:31:10.611Z,102173.63
2023-01-10T01:33:37.933Z,102163.34
2023-01-10T01:36:10.106Z,102151.09
2023-01-10T01:38:41.025Z,102146.72
2023-01-10T01:41:32.025Z,102162.38
2023-01-10T01:44:07.631Z,102188.47
2023-01-10T01:46:37.686Z,102204.66
2023-01-10T01:49:12.566Z,102211.72
2023-01-10T01:51:39.738Z,102225.38
2023-01-10T01:54:12.174Z,102213.28
2023-01-10T01:56:46.533Z,102217.97
2023-01-10T01:59:22.088Z,102220.75
2023-01-10T02:02:10.586Z,102215.72
2023-01-10T02:04:57.626Z,102225.56
2023-01-10T02:07:26.412Z,102233.03
2023-01-10T02:10:05.265Z,102222.50
2023-01-10T02:12:33.343Z,102226.38
2023-01-10T02:15:01.068Z,102224.88
2023-01-10T02:17:28.114Z,102227.03
2023-01-10T02:20:03.441Z,102219.19
2023-01-10T02:23:10.327Z,102231.00
2023-01-10T02:26:19.597Z,102224.31
2023-01-10T02:29:21.853Z,102227.31
2023-01-10T02:31:48.766Z,102234.72
2023-01-10T02:37:38.079Z,102244.84
2023-01-10T02:40:19.600Z,102239.91
2023-01-10T02:42:54.001Z,102234.59
2023-01-10T02:45:52.570Z,102234.59
2023-01-10T02:48:19.596Z,102243.78
2023-01-10T02:51:19.265Z,102248.28
2023-01-10T02:53:56.792Z,102245.75
2023-01-10T02:56:54.535Z,102241.72
2023-01-10T02:59:43.200Z,102257.72
2023-01-10T03:02:16.240Z,102266.09
2023-01-10T03:04:53.668Z,102274.16
2023-01-10T03:07:27.633Z,102273.41
2023-01-10T03:10:01.866Z,102276.28
2023-01-10T03:12:31.694Z,102285.22
2023-01-10T03:15:00.869Z,102280.91
2023-01-10T03:17:33.580Z,102278.59
2023-01-10T03:20:05.498Z,102286.78
2023-01-10T03:22:36.273Z,102282.41
2023-01-10T03:25:07.319Z,102283.31
2023-01-10T03:27:40.179Z,102285.50
2023-01-10T03:30:34.234Z,102294.72
2023-01-10T03:33:01.701Z,102298.31
2023-01-10T03:35:54.650Z,102292.88
2023-01-10T03:38:26.218Z,102300.03
2023-01-10T03:41:02.167Z,102307.31
2023-01-10T03:44:14.079Z,102317.06
2023-01-10T03:46:52.759Z,102319.75
2023-01-10T03:49:23.377Z,102307.59
2023-01-10T03:51:50.989Z,102306.59
2023-01-10T03:54:18.153Z,102317.16
2023-01-10T03:56:50.108Z,102299.50
2023-01-10T03:59:23.491Z,102303.94
2023-01-10T04:01:51.090Z,102302.28
2023-01-10T04:04:25.627Z,102300.59
2023-01-10T04:06:52.534Z,102291.78
2023-01-10T04:09:25.593Z,102288.22
2023-01-10T04:11:56.283Z,102280.34
2023-01-10T04:14:23.341Z,102292.81
2023-01-10T04:16:50.376Z,102283.16
2023-01-10T04:19:17.367Z,102292.13
2023-01-10T04:21:44.451Z,102286.94
2023-01-10T04:24:11.463Z,102282.59
2023-01-10T04:26:38.466Z,102280.09
2023-01-10T04:29:10.923Z,102283.78
2023-01-10T04:31:40.734Z,102297.09
2023-01-10T04:34:08.923Z,102298.22
2023-01-10T04:36:36.737Z,102296.59
2023-01-10T04:39:04.926Z,102296.56
2023-01-10T04:41:40.010Z,102300.16
2023-01-10T04:44:10.230Z,102308.31
2023-01-10T04:46:37.193Z,102303.97
2023-01-10T04:49:04.530Z,102306.63
2023-01-10T04:51:31.585Z,102310.19
2023-01-10T04:53:58.527Z,102302.25
2023-01-10T04:56:25.932Z,102311.84
2023-01-10T04:58:54.094Z,102311.88
2023-01-10T05:01:24.155Z,102326.91
2023-01-10T05:03:53.658Z,102314.50
2023-01-10T05:06:22.153Z,102318.13
2023-01-10T05:08:49.263Z,102308.41
2023-01-10T05:11:16.461Z,102297.91
2023-01-10T05:13:43.515Z,102307.53
2023-01-10T05:16:10.560Z,102322.63
2023-01-10T05:18:37.601Z,102329.59
2023-01-10T05:21:08.022Z,102334.03
2023-01-10T05:23:35.835Z,102342.91
2023-01-10T05:26:11.072Z,102337.72
2023-01-10T05:28:38.466Z,102333.28
2023-01-10T05:31:13.415Z,102337.59
2023-01-10T05:33:43.872Z,102331.50
2023-01-10T05:36:10.887Z,102338.63
2023-01-10T05:38:37.968Z,102337.84
2023-01-10T05:41:05.195Z,102352.81
2023-01-10T05:43:32.533Z,102380.16
2023-01-10T05:45:59.564Z,102381.91
2023-01-10T05:48:26.587Z,102387.19
2023-01-10T05:50:53.541Z,102390.75
2023-01-10T05:53:20.629Z,102387.28
2023-01-10T05:55:59.016Z,102398.75
2023-01-10T05:58:27.908Z,102412.09
2023-01-10T06:00:56.247Z,102417.47
2023-01-10T06:03:23.640Z,102408.59
2023-01-10T06:05:50.645Z,102391.06
2023-01-10T06:08:17.658Z,102405.03
2023-01-10T06:10:44.839Z,102406.78
2023-01-10T06:13:12.434Z,102415.53
2023-01-10T06:15:39.766Z,102419.91
2023-01-10T06:18:07.322Z,102420.78
2023-01-10T06:20:34.245Z,102417.09
2023-01-10T06:23:04.710Z,102415.28
2023-01-10T06:25:42.640Z,102406.41
2023-01-10T06:28:10.857Z,102406.31
2023-01-10T06:30:38.730Z,102405.34
2023-01-10T06:33:08.800Z,102400.91
2023-01-10T06:35:36.493Z,102400.91
2023-01-10T06:38:04.641Z,102407.97
2023-01-10T06:40:31.969Z,102412.34
2023-01-10T06:42:59.357Z,102417.56
2023-01-10T06:45:26.351Z,102422.91
2023-01-10T06:47:53.586Z,102416.66
2023-01-10T06:50:20.586Z,102420.09
2023-01-10T06:53:04.854Z,102423.59
2023-01-10T06:55:32.146Z,102409.41
2023-01-10T06:58:04.751Z,102408.47
2023-01-10T07:00:32.495Z,102402.38
2023-01-10T07:03:00.793Z,102402.28
2023-01-10T07:05:29.812Z,102406.66
2023-01-10T07:07:58.831Z,102409.31
2023-01-10T07:10:25.956Z,102415.38
2023-01-10T07:12:55.468Z,102420.63
2023-01-10T07:15:22.617Z,102424.06
2023-01-10T07:17:49.649Z,102440.72
2023-01-10T07:20:17.067Z,102443.34
2023-01-10T07:22:44.110Z,102449.41
2023-01-10T07:25:11.088Z,102454.53
2023-01-10T07:27:40.064Z,102463.22
2023-01-10T07:30:07.954Z,102468.34
2023-01-10T07:32:35.241Z,102475.16
2023-01-10T07:35:02.536Z,102480.63
2023-01-10T07:37:29.515Z,102482.28
2023-01-10T07:39:56.514Z,102484.06
2023-01-10T07:42:24.089Z,102493.66
2023-01-10T07:44:51.017Z,102492.34
2023-01-10T07:47:18.184Z,102484.84
2023-01-10T07:49:45.107Z,102475.19
2023-01-10T07:52:12.015Z,102467.09
2023-01-10T07:54:39.031Z,102482.03
2023-01-10T07:57:05.970Z,102493.53
2023-01-10T07:59:32.906Z,102500.88
2023-01-10T08:01:59.803Z,102493.34
2023-01-10T08:04:27.314Z,102479.00
2023-01-10T08:06:55.424Z,102492.19
2023-01-10T08:09:22.424Z,102487.69
2023-01-10T08:11:49.472Z,102490.09
2023-01-10T08:14:16.404Z,102494.09
2023-01-10T08:16:43.356Z,102490.03
2023-01-10T08:19:12.616Z,102486.16
2023-01-10T08:21:39.781Z,102485.66
2023-01-10T08:24:07.301Z,102470.47
2023-01-10T08:26:34.469Z,102475.22
2023-01-10T08:29:01.859Z,102471.06
2023-01-10T08:31:28.934Z,102476.31
2023-01-10T08:33:57.058Z,102484.72
2023-01-10T08:36:24.457Z,102485.47
2023-01-10T08:38:54.875Z,102473.44
2023-01-10T08:41:21.883Z,102478.53
2023-01-10T08:43:52.042Z,102484.25
2023-01-10T08:46:20.576Z,102479.06
2023-01-10T08:48:50.455Z,102466.88
2023-01-10T08:51:18.177Z,102471.63
2023-01-10T08:53:45.514Z,102479.59
2023-01-10T08:56:12.517Z,102482.41
2023-01-10T08:58:39.552Z,102489.78
2023-01-10T09:01:12.009Z,102496.06
2023-01-10T09:03:39.983Z,102499.44
2023-01-10T09:06:08.381Z,102498.09
2023-01-10T09:08:36.144Z,102502.13
2023-01-10T09:11:03.680Z,102512.91
2023-01-10T09:13:31.173Z,102514.84
2023-01-10T09:15:58.518Z,102515.09
2023-01-10T09:18:26.391Z,102509.63
2023-01-10T09:20:53.715Z,102513.66
2023-01-10T09:23:22.590Z,102517.81
2023-01-10T09:25:52.375Z,102517.09
2023-01-10T09:28:20.529Z,102517.47
2023-01-10T09:30:48.025Z,102517.09
2023-01-10T09:33:15.487Z,102510.56
2023-01-10T09:35:43.405Z,102505.09
2023-01-10T09:38:14.795Z,102517.72
2023-01-10T09:41:00.435Z,102528.06
2023-01-10T09:44:04.770Z,102526.88
2023-01-10T09:46:34.986Z,102521.03
2023-01-10T09:49:20.600Z,102521.66
2023-01-10T09:51:52.582Z,102524.59
2023-01-10T09:54:37.946Z,102510.97
2023-01-10T09:57:05.043Z,102510.69
2023-01-10T09:59:43.062Z,102509.66
2023-01-10T10:02:36.835Z,102510.94
2023-01-10T10:05:21.680Z,102509.72
2023-01-10T10:07:54.599Z,102507.78
2023-01-10T10:10:43.715Z,102513.31
2023-01-10T10:13:28.973Z,102505.50
2023-01-10T10:16:15.241Z,102499.00
2023-01-10T10:19:02.187Z,102504.66
2023-01-10T10:21:48.240Z,102513.94
2023-01-10T10:24:30.355Z,102520.78
2023-01-10T10:27:09.419Z,102517.69
2023-01-10T10:29:46.493Z,102507.75
2023-01-10T10:32:25.449Z,102513.81
2023-01-10T10:35:08.354Z,102506.47
2023-01-10T10:37:45.971Z,102510.44
2023-01-10T10:40:18.973Z,102505.91
2023-01-10T10:42:50.663Z,102507.44
2023-01-10T10:45:20.032Z,102510.41
2023-01-10T10:48:01.501Z,102503.03
2023-01-10T10:50:34.909Z,102490.94
2023-01-10T10:53:06.072Z,102489.00
2023-01-10T10:55:37.951Z,102485.00
2023-01-10T10:58:07.773Z,102484.19
2023-01-10T11:00:35.011Z,102483.25
2023-01-10T11:03:27.354Z,102480.69
2023-01-10T11:05:55.442Z,102478.50
2023-01-10T11:08:23.672Z,102484.28
2023-01-10T11:10:55.437Z,102471.72
2023-01-10T11:13:34.393Z,102467.78
2023-01-10T11:16:04.776Z,102461.72
2023-01-10T11:18:33.610Z,102450.47
2023-01-10T11:21:04.910Z,102454.34
2023-01-10T11:23:43.740Z,102451.59
2023-01-10T11:26:25.493Z,102442.41
2023-01-10T11:29:18.839Z,102439.09
2023-01-10T11:31:47.533Z,102440.47
2023-01-10T11:34:30.224Z,102449.59
2023-01-10T11:37:04.809Z,102458.09
2023-01-10T11:39:32.883Z,102455.44
2023-01-10T11:42:25.695Z,102457.78
2023-01-10T11:44:52.750Z,102457.88
2023-01-10T11:47:21.112Z,102470.78
2023-01-10T11:49:50.334Z,102469.03
2023-01-10T11:52:17.223Z,102468.56
2023-01-10T11:54:44.686Z,102462.31
2023-01-10T11:57:22.770Z,102448.75
2023-01-10T12:00:17.651Z,102439.91
2023-01-10T12:02:45.127Z,102433.81
2023-01-10T12:05:23.726Z,102439.69
2023-01-10T12:08:06.991Z,102444.53
2023-01-10T12:10:35.285Z,102434.25
2023-01-10T12:13:15.244Z,102438.81
2023-01-10T12:15:42.584Z,102438.91
2023-01-10T12:18:12.304Z,102429.59
2023-01-10T12:20:52.136Z,102422.03
2023-01-10T12:23:22.096Z,102423.47
2023-01-10T12:25:51.507Z,102424.69
2023-01-10T12:28:27.772Z,102419.25
2023-01-10T12:30:58.256Z,102420.09
2023-01-10T12:33:29.646Z,102422.22
2023-01-10T12:36:13.617Z,102408.03
2023-01-10T12:39:04.613Z,102406.56
2023-01-10T12:42:00.990Z,102398.56
2023-01-10T12:44:44.335Z,102385.72
2023-01-10T12:47:23.637Z,102389.69
2023-01-10T12:50:03.333Z,102393.47
2023-01-10T12:52:36.283Z,102387.94
2023-01-10T12:55:03.839Z,102380.00
2023-01-10T12:57:36.142Z,102377.00
2023-01-10T13:00:08.015Z,102374.84
2023-01-10T13:02:44.055Z,102373.56
2023-01-10T13:05:23.807Z,102377.88
2023-01-10T13:07:54.737Z,102372.09
2023-01-10T13:10:24.747Z,102374.94
2023-01-10T13:13:20.677Z,102360.41
2023-01-10T13:16:09.224Z,102364.25
2023-01-10T13:18:36.230Z,102360.28
2023-01-10T13:21:14.565Z,102355.34
2023-01-10T13:23:58.136Z,102351.97
2023-01-10T13:26:25.367Z,102358.88
2023-01-10T13:28:58.520Z,102353.97
2023-01-10T13:31:35.341Z,102351.25
2023-01-10T13:34:13.541Z,102345.66
2023-01-10T13:36:43.741Z,102339.84
2023-01-10T13:39:38.640Z,102335.81
2023-01-10T13:42:24.831Z,102334.13
2023-01-10T13:45:01.502Z,102338.03
2023-01-10T13:47:40.768Z,102328.25
2023-01-10T13:50:23.098Z,102319.03
2023-01-10T13:52:51.581Z,102322.09
2023-01-10T13:55:26.347Z,102314.50
2023-01-10T13:57:56.391Z,102322.66
2023-01-10T14:01:03.968Z,102325.50
2023-01-10T14:03:44.688Z,102323.53
2023-01-10T14:06:21.817Z,102320.22
2023-01-10T14:08:54.566Z,102319.63
2023-01-10T14:11:25.196Z,102311.63
2023-01-10T14:13:55.713Z,102308.22
2023-01-10T14:16:36.859Z,102300.28
2023-01-10T14:19:08.223Z,102303.28
2023-01-10T14:21:45.489Z,102305.50
2023-01-10T14:24:50.425Z,102296.53
2023-01-10T14:27:19.729Z,102308.59
2023-01-10T14:29:53.693Z,102305.38
2023-01-10T14:32:51.095Z,102308.47
2023-01-10T14:35:24.842Z,102314.81
2023-01-10T14:37:59.163Z,102310.13
2023-01-10T14:40:31.086Z,102319.41
2023-01-10T14:43:04.070Z,102312.75
2023-01-10T14:45:37.005Z,102314.66
2023-01-10T14:48:22.966Z,102312.41
2023-01-10T14:50:49.858Z,102310.91
2023-01-10T14:53:36.989Z,102314.84
2023-01-10T14:56:03.988Z,102319.28
2023-01-10T14:58:31.088Z,102313.91
2023-01-10T15:00:58.631Z,102316.31
2023-01-10T15:03:25.947Z,102312.75
2023-01-10T15:05:56.853Z,102309.59
2023-01-10T15:08:31.893Z,102309.94
2023-01-10T15:11:08.216Z,102312.09
2023-01-10T15:13:57.952Z,102307.56
2023-01-10T15:16:28.191Z,102310.03
2023-01-10T15:18:56.816Z,102306.81
2023-01-10T15:21:25.777Z,102317.44
2023-01-10T15:23:52.891Z,102309.06
2023-01-10T15:26:25.986Z,102324.31
2023-01-10T15:29:23.606Z,102301.03
2023-01-10T15:31:53.595Z,102303.19
2023-01-10T15:34:26.272Z,102297.16
2023-01-10T15:36:56.278Z,102300.16
2023-01-10T15:39:27.452Z,102288.94
2023-01-10T15:42:01.352Z,102286.34
2023-01-10T15:44:40.986Z,102283.13
2023-01-10T15:47:33.747Z,102294.06
2023-01-10T15:50:02.827Z,102294.47
2023-01-10T15:52:59.067Z,102285.56
2023-01-10T15:55:45.796Z,102293.19
2023-01-10T15:58:30.167Z,102290.16
2023-01-10T16:01:03.918Z,102293.41
2023-01-10T16:07:27.696Z,102288.66
2023-01-10T16:10:08.634Z,102299.69
2023-01-10T16:16:19.336Z,102296.16
2023-01-10T16:18:46.258Z,102293.91
2023-01-10T16:22:08.322Z,102290.72
2023-01-10T16:24:36.487Z,102299.09
2023-01-10T16:27:06.550Z,102301.16
2023-01-10T16:29:34.370Z,102306.53
2023-01-10T16:32:16.284Z,102311.22
2023-01-10T16:34:44.073Z,102305.09
2023-01-10T16:37:11.049Z,102315.06
2023-01-10T16:39:37.991Z,102300.97
2023-01-10T16:42:23.570Z,102307.31
2023-01-10T16:44:50.495Z,102307.47
2023-01-10T16:47:17.394Z,102302.50
2023-01-10T16:49:45.533Z,102305.75
2023-01-10T16:52:14.828Z,102302.97
2023-01-10T16:54:41.844Z,102304.06
2023-01-10T16:57:11.464Z,102305.19
2023-01-10T16:59:39.581Z,102309.22
2023-01-10T17:02:17.886Z,102310.38
2023-01-10T17:04:45.158Z,102303.47
2023-01-10T17:07:12.719Z,102308.91
2023-01-10T17:09:39.836Z,102304.00
2023-01-10T17:12:13.638Z,102318.41
2023-01-10T17:14:40.655Z,102319.63
2023-01-10T17:17:07.543Z,102330.03
2023-01-10T17:19:34.610Z,102332.81
2023-01-10T17:22:01.516Z,102346.28
2023-01-10T17:24:30.025Z,102347.53
2023-01-10T17:26:57.422Z,102349.44
2023-01-10T17:29:24.404Z,102353.25
2023-01-10T17:31:51.469Z,102357.94
2023-01-10T17:34:18.609Z,102364.25
2023-01-10T17:36:45.488Z,102369.59
2023-01-10T17:39:12.475Z,102378.69
2023-01-10T17:41:39.666Z,102375.41
2023-01-10T17:44:06.616Z,102374.56
2023-01-10T17:46:33.918Z,102372.13
2023-01-10T17:49:02.651Z,102369.56
2023-01-10T17:51:29.626Z,102366.28
2023-01-10T17:53:56.762Z,102364.53
2023-01-10T17:56:24.686Z,102369.03
2023-01-10T17:58:53.091Z,102374.47
2023-01-10T18:01:25.183Z,102374.66
2023-01-10T18:03:53.437Z,102386.31
2023-01-10T18:06:25.070Z,102382.78
2023-01-10T18:08:53.429Z,102386.16
2023-01-10T18:11:21.565Z,102377.53
2023-01-10T18:13:48.494Z,102383.75
2023-01-10T18:16:15.495Z,102380.09
2023-01-10T18:18:42.480Z,102378.41
2023-01-10T18:21:14.622Z,102385.69
2023-01-10T18:23:42.002Z,102385.69
2023-01-10T18:26:11.599Z,102381.16
2023-01-10T18:28:43.305Z,102380.97
2023-01-10T18:31:16.781Z,102392.78
2023-01-10T18:33:45.893Z,102399.25
2023-01-10T18:36:16.185Z,102399.25
2023-01-10T18:38:43.764Z,102406.69
2023-01-10T18:41:11.608Z,102410.31
2023-01-10T18:43:38.762Z,102399.78
2023-01-10T18:46:12.939Z,102392.69
2023-01-10T18:48:40.481Z,102380.34
2023-01-10T18:51:09.109Z,102389.41
2023-01-10T18:53:36.321Z,102384.25
2023-01-10T18:56:04.890Z,102391.34
2023-01-10T18:58:40.485Z,102384.31
2023-01-10T19:01:19.766Z,102388.03
2023-01-10T19:03:47.450Z,102384.59
2023-01-10T19:06:16.939Z,102378.34
2023-01-10T19:08:46.020Z,102381.97
2023-01-10T19:11:16.033Z,102382.09
2023-01-10T19:13:49.521Z,102391.84
2023-01-10T19:16:20.678Z,102392.88
2023-01-10T19:18:58.794Z,102392.19
2023-01-10T19:21:27.294Z,102386.97
2023-01-10T19:23:55.946Z,102392.50
2023-01-10T19:26:24.392Z,102382.84
2023-01-10T19:28:51.822Z,102384.81
2023-01-10T19:31:24.234Z,102392.84
2023-01-10T19:33:51.699Z,102395.78
2023-01-10T19:36:20.501Z,102396.81
2023-01-10T19:38:48.019Z,102396.22
2023-01-10T19:41:16.452Z,102404.38
2023-01-10T19:43:43.537Z,102401.28
2023-01-10T19:46:13.016Z,102405.84
2023-01-10T19:48:40.043Z,102398.09
2023-01-10T19:51:12.596Z,102392.00
2023-01-10T19:53:42.381Z,102389.50
2023-01-10T19:56:10.078Z,102382.59
2023-01-10T19:58:38.527Z,102387.41
2023-01-10T20:01:12.410Z,102388.44
2023-01-10T20:03:42.455Z,102392.38
2023-01-10T20:06:14.123Z,102392.53
2023-01-10T20:08:41.552Z,102395.34
2023-01-10T20:11:08.883Z,102392.78
2023-01-10T20:13:38.546Z,102386.88
2023-01-10T20:16:06.590Z,102388.00
2023-01-10T20:18:33.657Z,102386.41
2023-01-10T20:21:06.998Z,102391.88
2023-01-10T20:23:36.367Z,102393.84
2023-01-10T20:26:06.756Z,102393.94
2023-01-10T20:28:34.605Z,102392.34
2023-01-10T20:31:02.207Z,102398.03
2023-01-10T20:33:34.252Z,102396.44
2023-01-10T20:36:04.370Z,102393.00
2023-01-10T20:38:33.963Z,102389.53
2023-01-10T20:41:07.827Z,102395.81
2023-01-10T20:43:40.571Z,102399.44
2023-01-10T20:46:17.179Z,102398.63
2023-01-10T20:48:48.066Z,102389.88
2023-01-10T20:51:22.447Z,102381.03
2023-01-10T20:53:51.285Z,102381.34
2023-01-10T20:56:21.739Z,102372.69
2023-01-10T20:58:51.562Z,102371.75
2023-01-10T21:01:33.607Z,102372.78
2023-01-10T21:04:02.574Z,102375.69
2023-01-10T21:06:29.713Z,102367.69
2023-01-10T21:08:57.304Z,102364.28
2023-01-10T21:11:25.083Z,102353.75
2023-01-10T21:13:52.522Z,102346.91
2023-01-10T21:16:22.329Z,102346.06
2023-01-10T21:18:50.723Z,102349.97
2023-01-10T21:21:22.578Z,102349.13
2023-01-10T21:23:50.057Z,102351.16
2023-01-10T21:26:17.324Z,102341.47
2023-01-10T21:28:49.010Z,102343.44
2023-01-10T21:31:18.760Z,102341.06
2023-01-10T21:33:46.099Z,102344.69
2023-01-10T21:36:14.503Z,102344.75
2023-01-10T21:38:41.900Z,102347.53
2023-01-10T21:41:38.854Z,102350.44
2023-01-10T21:44:07.579Z,102350.88
2023-01-10T21:46:35.492Z,102349.19
2023-01-10T21:49:03.593Z,102352.91
2023-01-10T21:51:30.546Z,102346.00
2023-01-10T21:53:57.906Z,102337.22
2023-01-10T21:56:25.090Z,102349.03
2023-01-10T21:58:52.427Z,102350.03
2023-01-10T22:01:19.501Z,102344.84
2023-01-10T22:03:46.680Z,102351.19
2023-01-10T22:06:14.015Z,102340.63
2023-01-10T22:08:41.569Z,102339.91
2023-01-10T22:11:10.916Z,102338.34
2023-01-10T22:13:38.656Z,102327.88
2023-01-10T22:16:07.106Z,102331.69
2023-01-10T22:18:34.343Z,102326.50
2023-01-10T22:21:03.646Z,102330.84
2023-01-10T22:23:34.738Z,102330.91
2023-01-10T22:26:07.144Z,102327.34
2023-01-10T22:28:34.453Z,102320.31
2023-01-10T22:31:01.931Z,102323.03
2023-01-10T22:33:44.850Z,102322.13
2023-01-10T22:36:17.353Z,102321.31
2023-01-10T22:38:46.823Z,102321.31
2023-01-10T22:41:17.098Z,102321.31
2023-01-10T22:43:52.182Z,102323.03
2023-01-10T22:46:19.438Z,102321.16
2023-01-10T22:48:46.572Z,102321.31
2023-01-10T22:51:15.058Z,102322.13
2023-01-10T22:53:42.288Z,102320.31
2023-01-10T22:56:11.377Z,102323.03
2023-01-10T22:58:38.473Z,102329.25
2023-01-10T23:01:07.032Z,102324.91
2023-01-10T23:03:34.630Z,102322.34
2023-01-10T23:06:01.585Z,102325.06
2023-01-10T23:08:28.608Z,102324.91
2023-01-10T23:10:55.491Z,102321.25
2023-01-10T23:13:23.216Z,102319.13
2023-01-10T23:16:28.610Z,102326.81
2023-01-10T23:18:57.628Z,102333.53
2023-01-10T23:21:25.562Z,102327.28
2023-01-10T23:23:52.454Z,102333.53
2023-01-10T23:26:19.497Z,102325.53
2023-01-10T23:28:49.263Z,102319.16
2023-01-10T23:31:24.309Z,102314.81
2023-01-10T23:33:52.363Z,102302.34
2023-01-10T23:36:19.751Z,102298.88
2023-01-10T23:38:48.041Z,102301.00
2023-01-10T23:41:15.088Z,102295.94
2023-01-10T23:43:42.786Z,102290.91
2023-01-10T23:46:09.820Z,102287.72
2023-01-10T23:48:36.782Z,102291.59
2023-01-10T23:51:03.836Z,102286.50
2023-01-10T23:53:30.721Z,102279.56
2023-01-10T23:55:58.210Z,102272.72
2023-01-10T23:58:25.800Z,102264.00
